Погода Алегретена 2 недели

Риу-Гранди-ду-Сул, Бразилия

04 - 17 февраля
  • 04февраля
    Сегодня
    +16°
    +30°
    Ясно и безоблачно
    ВремяПогодаТемператураВлажностьДавлениеВетер, м/сВероятность осадков
    00:00Ясно и безоблачно+22°C77 %750 мм4.4 м/с5 %
    03:00Пасмурно, сплошная облачность+22°C77 %749 мм4.8 м/с2 %
    06:00Ясно и безоблачно+19°C86 %750 мм3.1 м/с5 %
    09:00Практически безоблачно+22°C73 %752 мм3.7 м/с5 %
    12:00Практически безоблачно+27°C54 %752 мм4.8 м/с49 %
    15:00Ясно и безоблачно+30°C42 %751 мм5.9 м/с27 %
    18:00Ясно и безоблачно+29°C38 %750 мм6.0 м/с6 %
    21:00Ясно и безоблачно+25°C49 %751 мм4.5 м/с5 %
  • 05февраля
    Воскресенье
    +18°
    +31°
    Небольшая облачность
    ВремяПогодаТемператураВлажностьДавлениеВетер, м/сВероятность осадков
    00:00Ясно и безоблачно+20°C65 %752 мм2.2 м/с5 %
    03:00Практически безоблачно+18°C68 %751 мм2.4 м/с5 %
    06:00Ясно и безоблачно+16°C75 %751 мм2.0 м/с5 %
    09:00Практически безоблачно+22°C57 %752 мм2.8 м/с5 %
    12:00Облачно с прояснениями+27°C30 %751 мм3.8 м/с5 %
    15:00Небольшая облачность+30°C26 %750 мм2.4 м/с5 %
    18:00Ясно и безоблачно+30°C25 %749 мм1.3 м/с5 %
    21:00Ясно и безоблачно+24°C42 %749 мм2.2 м/с5 %
  • 06февраля
    Понедельник
    +18°
    +34°
    Ясно и безоблачно
    ВремяПогодаТемператураВлажностьДавлениеВетер, м/сВероятность осадков
    00:00Ясно и безоблачно+21°C53 %749 мм2.6 м/с5 %
    03:00Ясно и безоблачно+21°C63 %749 мм2.4 м/с5 %
    06:00Ясно и безоблачно+18°C74 %749 мм0.7 м/с5 %
    09:00Ясно и безоблачно+24°C58 %751 мм0.4 м/с5 %
    12:00Ясно и безоблачно+30°C32 %750 мм1.2 м/с5 %
    15:00Ясно и безоблачно+33°C27 %749 мм1.9 м/с5 %
    18:00Ясно и безоблачно+33°C26 %748 мм1.4 м/с5 %
    21:00Ясно и безоблачно+28°C39 %749 мм2.3 м/с5 %
  • 07февраля
    Вторник
    +20°
    +36°
    Ясно и безоблачно
    ВремяПогодаТемператураВлажностьДавлениеВетер, м/сВероятность осадков
    00:00Практически безоблачно+23°C43 %750 мм2.5 м/с5 %
    03:00Ясно и безоблачно+21°C57 %749 мм2.2 м/с5 %
    06:00Ясно и безоблачно+18°C69 %749 мм1.9 м/с5 %
    09:00Ясно и безоблачно+25°C48 %751 мм1.6 м/с5 %
    12:00Ясно и безоблачно+33°C28 %751 мм1.8 м/с5 %
    15:00Ясно и безоблачно+35°C22 %749 мм1.7 м/с5 %
    18:00Ясно и безоблачно+36°C21 %748 мм0.9 м/с5 %
    21:00Ясно и безоблачно+30°C30 %748 мм2.6 м/с5 %
  • 08февраля
    Среда
    +22°
    +39°
    Ясно и безоблачно
    ВремяПогодаТемператураВлажностьДавлениеВетер, м/сВероятность осадков
    00:00Ясно и безоблачно+25°C39 %749 мм2.6 м/с5 %
    03:00Ясно и безоблачно+24°C49 %749 мм3.1 м/с5 %
    06:00Ясно и безоблачно+21°C65 %749 мм1.9 м/с4 %
    09:00Ясно и безоблачно+28°C49 %749 мм2.0 м/с10 %
    12:00Ясно и безоблачно+36°C26 %749 мм3.7 м/с6 %
    15:00Ясно и безоблачно+38°C20 %747 мм2.7 м/с5 %
    18:00Облачно с прояснениями+36°C20 %746 мм2.1 м/с34 %
    21:00Практически безоблачно+29°C33 %747 мм2.0 м/с29 %
Мы используем cookies
Соглашаюсь